createdAt,value
2018-10-02T00:01:12.473Z,3.30
2018-10-02T00:03:41.265Z,4.87
2018-10-02T00:06:09.871Z,6.00
2018-10-02T00:08:38.487Z,6.17
2018-10-02T00:11:12.772Z,3.97
2018-10-02T00:13:46.421Z,5.70
2018-10-02T00:16:15.060Z,3.63
2018-10-02T00:18:43.701Z,4.23
2018-10-02T00:21:12.258Z,5.03
2018-10-02T00:23:40.823Z,4.23
2018-10-02T00:26:09.441Z,5.77
2018-10-02T00:28:37.978Z,6.13
2018-10-02T00:31:06.612Z,5.80
2018-10-02T00:33:35.271Z,4.37
2018-10-02T00:36:04.203Z,3.33
2018-10-02T00:38:32.780Z,4.83
2018-10-02T00:41:01.930Z,3.37
2018-10-02T00:43:30.639Z,4.53
2018-10-02T00:45:59.210Z,4.67
2018-10-02T00:48:27.783Z,7.70
2018-10-02T00:50:56.399Z,4.50
2018-10-02T00:53:25.046Z,6.80
2018-10-02T00:55:53.692Z,6.57
2018-10-02T00:58:22.294Z,7.50
2018-10-02T01:00:50.826Z,5.47
2018-10-02T01:03:19.542Z,6.07
2018-10-02T01:05:48.126Z,4.97
2018-10-02T01:08:16.649Z,6.00
2018-10-02T01:10:45.213Z,4.33
2018-10-02T01:13:13.810Z,4.53
2018-10-02T01:15:42.761Z,5.17
2018-10-02T01:18:11.551Z,4.60
2018-10-02T01:20:40.364Z,5.53
2018-10-02T01:23:08.869Z,4.47
2018-10-02T01:25:37.538Z,5.97
2018-10-02T01:28:06.510Z,5.60
2018-10-02T01:30:35.084Z,4.80
2018-10-02T01:33:04.113Z,3.77
2018-10-02T01:35:32.750Z,6.63
2018-10-02T01:38:02.174Z,3.70
2018-10-02T01:40:31.091Z,4.47
2018-10-02T01:42:59.621Z,4.80
2018-10-02T01:45:28.293Z,4.10
2018-10-02T01:47:56.870Z,4.30
2018-10-02T01:50:25.556Z,4.10
2018-10-02T01:52:54.216Z,7.07
2018-10-02T01:55:22.774Z,4.97
2018-10-02T01:57:51.429Z,3.07
2018-10-02T02:00:20.129Z,4.77
2018-10-02T02:02:48.716Z,5.47
2018-10-02T02:05:17.485Z,2.63
2018-10-02T02:07:46.173Z,3.30
2018-10-02T02:10:14.747Z,4.37
2018-10-02T02:12:43.378Z,2.63
2018-10-02T02:15:12.136Z,4.70
2018-10-02T02:17:40.713Z,3.53
2018-10-02T02:20:09.553Z,4.17
2018-10-02T02:22:38.121Z,4.00
2018-10-02T02:25:08.251Z,6.87
2018-10-02T02:27:36.847Z,3.83
2018-10-02T02:30:05.657Z,5.40
2018-10-02T02:32:34.211Z,4.43
2018-10-02T02:35:03.597Z,4.53
2018-10-02T02:37:32.099Z,4.33
2018-10-02T02:40:00.676Z,4.00
2018-10-02T02:42:29.292Z,3.90
2018-10-02T02:44:58.041Z,6.57
2018-10-02T02:47:31.807Z,5.33
2018-10-02T02:50:05.441Z,5.60
2018-10-02T02:52:38.307Z,3.60
2018-10-02T02:55:07.539Z,6.57
2018-10-02T02:57:36.030Z,4.07
2018-10-02T03:00:04.938Z,5.87
2018-10-02T03:02:33.634Z,4.27
2018-10-02T03:05:02.788Z,5.30
2018-10-02T03:07:31.404Z,6.60
2018-10-02T03:09:59.987Z,4.80
2018-10-02T03:12:28.575Z,9.00
2018-10-02T03:14:57.177Z,5.00
2018-10-02T03:17:25.810Z,7.53
2018-10-02T03:19:54.380Z,6.57
2018-10-02T03:22:23.067Z,5.83
2018-10-02T03:24:51.708Z,5.27
2018-10-02T03:27:20.274Z,2.60
2018-10-02T03:29:48.775Z,8.33
2018-10-02T03:32:17.356Z,5.53
2018-10-02T03:34:45.941Z,6.60
2018-10-02T03:37:14.604Z,3.77
2018-10-02T03:39:43.304Z,6.53
2018-10-02T03:42:11.856Z,7.27
2018-10-02T03:44:40.438Z,6.73
2018-10-02T03:47:08.954Z,6.30
2018-10-02T03:49:37.535Z,6.13
2018-10-02T03:52:06.242Z,4.27
2018-10-02T03:54:34.881Z,5.10
2018-10-02T03:57:03.750Z,5.07
2018-10-02T03:59:32.366Z,7.83
2018-10-02T04:02:01.605Z,8.10
2018-10-02T04:04:30.143Z,6.10
2018-10-02T04:06:58.725Z,6.43
2018-10-02T04:09:27.312Z,7.57
2018-10-02T04:11:55.920Z,5.00
2018-10-02T04:14:24.644Z,5.00
2018-10-02T04:16:53.272Z,5.83
2018-10-02T04:19:21.876Z,5.53
2018-10-02T04:21:50.506Z,5.33
2018-10-02T04:27:21.516Z,7.37
2018-10-02T04:29:50.094Z,7.93
2018-10-02T04:32:18.689Z,5.33
2018-10-02T04:34:47.219Z,4.33
2018-10-02T04:37:15.831Z,4.97
2018-10-02T04:39:44.496Z,6.10
2018-10-02T04:42:13.055Z,4.73
2018-10-02T04:44:41.844Z,5.13
2018-10-02T04:47:10.535Z,4.10
2018-10-02T04:49:39.170Z,3.90
2018-10-02T04:52:07.822Z,5.40
2018-10-02T04:54:36.403Z,6.30
2018-10-02T04:57:05.070Z,7.13
2018-10-02T04:59:34.023Z,6.13
2018-10-02T05:02:02.671Z,6.17
2018-10-02T05:04:31.372Z,7.53
2018-10-02T05:06:59.916Z,6.00
2018-10-02T05:09:28.600Z,7.50
2018-10-02T05:11:57.193Z,6.03
2018-10-02T05:14:25.834Z,6.33
2018-10-02T05:16:54.398Z,9.67
2018-10-02T05:19:22.951Z,6.83
2018-10-02T05:21:51.632Z,6.27
2018-10-02T05:24:20.224Z,10.83
2018-10-02T05:26:48.806Z,5.30
2018-10-02T05:29:17.565Z,7.43
2018-10-02T05:31:46.357Z,9.00
2018-10-02T05:34:15.033Z,9.77
2018-10-02T05:36:43.749Z,8.07
2018-10-02T05:39:12.534Z,9.07
2018-10-02T05:41:41.206Z,5.90
2018-10-02T05:44:12.842Z,9.10
2018-10-02T05:46:41.428Z,10.00
2018-10-02T05:49:10.212Z,10.43
2018-10-02T05:51:38.743Z,6.87
2018-10-02T05:54:07.481Z,7.97
2018-10-02T05:56:36.151Z,9.33
2018-10-02T05:59:04.740Z,7.57
2018-10-02T06:01:33.320Z,9.70
2018-10-02T06:04:01.945Z,8.77
2018-10-02T06:06:30.581Z,8.93
2018-10-02T06:08:59.205Z,9.67
2018-10-02T06:11:27.876Z,8.27
2018-10-02T06:13:56.525Z,8.73
2018-10-02T06:16:25.374Z,10.03
2018-10-02T06:18:53.986Z,9.97
2018-10-02T06:21:22.693Z,9.93
2018-10-02T06:23:51.326Z,8.73
2018-10-02T06:26:19.938Z,12.30
2018-10-02T06:28:48.504Z,11.30
2018-10-02T06:31:17.262Z,11.33
2018-10-02T06:33:45.987Z,10.93
2018-10-02T06:36:14.709Z,12.40
2018-10-02T06:38:50.117Z,11.60
2018-10-02T06:41:18.834Z,10.97
2018-10-02T06:43:47.639Z,12.10
2018-10-02T06:46:16.161Z,14.53
2018-10-02T06:48:44.984Z,15.13
2018-10-02T06:51:13.660Z,17.67
2018-10-02T06:53:42.175Z,14.00
2018-10-02T06:56:10.801Z,15.00
2018-10-02T06:58:39.416Z,14.53
2018-10-02T07:01:08.017Z,15.10
2018-10-02T07:03:36.749Z,14.53
2018-10-02T07:06:05.408Z,16.03
2018-10-02T07:08:34.048Z,15.60
2018-10-02T07:11:03.431Z,15.87
2018-10-02T07:13:31.989Z,20.87
2018-10-02T07:16:00.535Z,18.30
2018-10-02T07:18:29.165Z,17.60
2018-10-02T07:20:57.847Z,14.70
2018-10-02T07:23:26.489Z,15.43
2018-10-02T07:25:54.976Z,16.40
2018-10-02T07:28:23.665Z,15.07
2018-10-02T07:30:52.245Z,16.53
2018-10-02T07:33:21.092Z,14.27
2018-10-02T07:35:49.702Z,14.50
2018-10-02T07:38:18.440Z,14.53
2018-10-02T07:40:47.118Z,15.37
2018-10-02T07:43:15.765Z,13.10
2018-10-02T07:45:44.361Z,12.50
2018-10-02T07:48:12.989Z,17.13
2018-10-02T07:50:41.803Z,12.50
2018-10-02T07:53:10.372Z,14.10
2018-10-02T07:55:39.029Z,11.83
2018-10-02T07:58:07.597Z,13.23
2018-10-02T08:00:36.393Z,11.47
2018-10-02T08:03:05.091Z,10.83
2018-10-02T08:05:33.680Z,12.87
2018-10-02T08:08:02.388Z,9.87
2018-10-02T08:10:31.081Z,9.47
2018-10-02T08:12:59.722Z,8.90
2018-10-02T08:15:28.502Z,7.17
2018-10-02T08:17:57.139Z,8.07
2018-10-02T08:20:25.734Z,8.23
2018-10-02T08:22:54.332Z,6.87
2018-10-02T08:25:22.864Z,6.77
2018-10-02T08:27:51.571Z,6.07
2018-10-02T08:30:20.203Z,8.70
2018-10-02T08:32:48.814Z,7.20
2018-10-02T08:35:17.475Z,6.73
2018-10-02T08:37:46.067Z,5.23
2018-10-02T08:40:14.746Z,5.63
2018-10-02T08:42:43.338Z,4.97
2018-10-02T08:45:12.084Z,5.17
2018-10-02T08:47:41.419Z,6.97
2018-10-02T08:50:09.675Z,5.00
2018-10-02T08:52:38.407Z,6.27
2018-10-02T08:55:07.232Z,6.37
2018-10-02T08:57:35.847Z,4.20
2018-10-02T09:00:04.979Z,6.50
2018-10-02T09:02:33.640Z,5.87
2018-10-02T09:05:02.875Z,7.03
2018-10-02T09:07:31.535Z,6.20
2018-10-02T09:10:00.143Z,4.70
2018-10-02T09:12:28.737Z,5.07
2018-10-02T09:14:57.424Z,4.83
2018-10-02T09:17:26.045Z,4.50
2018-10-02T09:19:54.662Z,5.90
2018-10-02T09:22:23.297Z,4.63
2018-10-02T09:24:51.945Z,4.07
2018-10-02T09:27:20.593Z,4.70
2018-10-02T09:29:54.511Z,3.87
2018-10-02T09:32:28.518Z,4.30
2018-10-02T09:35:02.356Z,6.37
2018-10-02T09:37:36.192Z,4.30
2018-10-02T09:41:10.780Z,5.83
2018-10-02T09:43:51.754Z,4.00
2018-10-02T09:46:21.170Z,5.37
2018-10-02T09:48:49.958Z,4.60
2018-10-02T09:51:18.680Z,5.53
2018-10-02T09:53:47.475Z,4.67
2018-10-02T09:56:16.177Z,4.53
2018-10-02T09:58:44.686Z,3.90
2018-10-02T10:01:18.672Z,4.17
2018-10-02T10:03:47.272Z,4.30
2018-10-02T10:06:15.928Z,5.27
2018-10-02T10:08:44.477Z,4.80
2018-10-02T10:11:13.036Z,4.30
2018-10-02T10:13:41.634Z,5.03
2018-10-02T10:16:10.289Z,5.27
2018-10-02T10:18:39.000Z,4.40
2018-10-02T10:21:07.782Z,4.80
2018-10-02T10:23:36.457Z,4.37
2018-10-02T10:26:05.126Z,4.30
2018-10-02T10:28:33.762Z,5.17
2018-10-02T10:31:03.502Z,5.27
2018-10-02T10:33:32.301Z,4.20
2018-10-02T10:36:00.892Z,5.23
2018-10-02T10:38:29.604Z,4.77
2018-10-02T10:40:58.465Z,4.40
2018-10-02T10:43:27.155Z,4.50
2018-10-02T10:45:55.809Z,4.00
2018-10-02T10:48:24.484Z,4.40
2018-10-02T10:50:53.183Z,4.33
2018-10-02T10:53:21.844Z,3.70
2018-10-02T10:55:50.520Z,3.70
2018-10-02T10:58:19.117Z,3.30
2018-10-02T11:00:47.716Z,3.33
2018-10-02T11:03:16.360Z,4.00
2018-10-02T11:05:44.888Z,3.70
2018-10-02T11:08:13.555Z,3.00
2018-10-02T11:10:42.198Z,3.30
2018-10-02T11:13:10.782Z,3.10
2018-10-02T11:15:39.487Z,3.13
2018-10-02T11:18:08.178Z,2.90
2018-10-02T11:20:37.807Z,3.10
2018-10-02T11:23:06.546Z,2.63
2018-10-02T11:25:35.253Z,2.53
2018-10-02T11:28:03.817Z,2.67
2018-10-02T11:30:32.462Z,2.20
2018-10-02T11:33:01.582Z,2.30
2018-10-02T11:35:30.225Z,2.20
2018-10-02T11:37:58.742Z,1.70
2018-10-02T11:40:27.408Z,1.60
2018-10-02T11:42:56.135Z,2.20
2018-10-02T11:45:24.799Z,1.90
2018-10-02T11:47:53.364Z,1.73
2018-10-02T11:50:21.984Z,1.90
2018-10-02T11:52:50.678Z,1.93
2018-10-02T11:55:19.396Z,1.60
2018-10-02T11:57:48.144Z,1.70
2018-10-02T12:00:16.954Z,1.50
2018-10-02T12:02:45.496Z,1.60
2018-10-02T12:05:14.029Z,1.70
2018-10-02T12:07:42.747Z,1.60
2018-10-02T12:10:11.343Z,1.87
2018-10-02T12:12:39.937Z,2.13
2018-10-02T12:15:08.716Z,1.70
2018-10-02T12:17:37.460Z,1.70
2018-10-02T12:20:06.108Z,1.73
2018-10-02T12:22:34.703Z,1.80
2018-10-02T12:25:03.713Z,1.93
2018-10-02T12:27:32.418Z,1.60
2018-10-02T12:30:02.168Z,1.30
2018-10-02T12:32:30.816Z,1.93
2018-10-02T12:34:59.441Z,1.50
2018-10-02T12:37:28.111Z,1.20
2018-10-02T12:39:56.806Z,1.07
2018-10-02T12:42:25.285Z,1.30
2018-10-02T12:44:53.963Z,1.53
2018-10-02T12:47:22.561Z,1.50
2018-10-02T12:49:51.259Z,1.70
2018-10-02T12:52:20.067Z,1.27
2018-10-02T12:54:48.685Z,1.47
2018-10-02T12:57:17.344Z,1.40
2018-10-02T12:59:45.984Z,1.37
2018-10-02T13:02:14.680Z,1.43
2018-10-02T13:04:43.339Z,1.70
2018-10-02T13:07:11.986Z,1.80
2018-10-02T13:09:40.601Z,1.70
2018-10-02T13:12:09.195Z,1.30
2018-10-02T13:14:37.732Z,1.30
2018-10-02T13:17:06.524Z,1.53
2018-10-02T13:19:35.218Z,1.67
2018-10-02T13:22:04.053Z,1.17
2018-10-02T13:24:32.719Z,1.60
2018-10-02T13:27:01.760Z,1.83
2018-10-02T13:29:30.323Z,1.40
2018-10-02T13:31:58.931Z,1.30
2018-10-02T13:34:27.622Z,1.20
2018-10-02T13:36:56.318Z,0.90
2018-10-02T13:39:25.011Z,0.80
2018-10-02T13:41:53.627Z,0.90
2018-10-02T13:44:22.353Z,1.00
2018-10-02T13:46:51.045Z,0.93
2018-10-02T13:49:19.643Z,0.90
2018-10-02T13:51:48.267Z,0.97
2018-10-02T13:54:16.906Z,1.27
2018-10-02T13:56:45.668Z,1.10
2018-10-02T13:59:14.253Z,1.10
2018-10-02T14:01:42.923Z,1.10
2018-10-02T14:04:11.604Z,1.40
2018-10-02T14:06:40.251Z,1.40
2018-10-02T14:09:09.876Z,1.27
2018-10-02T14:11:38.491Z,1.50
2018-10-02T14:14:07.145Z,1.57
2018-10-02T14:16:35.866Z,1.50
2018-10-02T14:19:04.492Z,1.50
2018-10-02T14:21:33.224Z,1.40
2018-10-02T14:24:02.222Z,1.73
2018-10-02T14:26:30.903Z,1.33
2018-10-02T14:28:59.584Z,1.70
2018-10-02T14:31:28.113Z,1.90
2018-10-02T14:33:56.782Z,1.90
2018-10-02T14:36:25.476Z,1.47
2018-10-02T14:38:54.100Z,1.80
2018-10-02T14:41:22.723Z,1.90
2018-10-02T14:43:51.263Z,2.10
2018-10-02T14:46:19.926Z,2.20
2018-10-02T14:48:48.532Z,2.63
2018-10-02T14:51:17.175Z,3.10
2018-10-02T14:53:45.784Z,3.07
2018-10-02T14:56:14.426Z,2.87
2018-10-02T14:58:43.122Z,3.23
2018-10-02T15:01:11.765Z,3.43
2018-10-02T15:03:40.271Z,3.47
2018-10-02T15:06:08.847Z,3.77
2018-10-02T15:08:37.407Z,3.67
2018-10-02T15:11:06.167Z,4.07
2018-10-02T15:13:34.742Z,4.33
2018-10-02T15:16:03.615Z,4.40
2018-10-02T15:18:32.419Z,4.47
2018-10-02T15:21:01.757Z,4.20
2018-10-02T15:23:30.340Z,4.80
2018-10-02T15:25:59.124Z,4.90
2018-10-02T15:28:27.623Z,5.13
2018-10-02T15:30:56.262Z,4.90
2018-10-02T15:33:25.020Z,5.40
2018-10-02T15:35:53.642Z,5.27
2018-10-02T15:38:22.366Z,5.70
2018-10-02T15:40:50.934Z,6.10
2018-10-02T15:43:19.644Z,6.30
2018-10-02T15:45:48.207Z,7.20
2018-10-02T15:48:16.780Z,8.17
2018-10-02T15:50:45.553Z,7.30
2018-10-02T15:53:14.138Z,8.10
2018-10-02T15:55:42.772Z,8.97
2018-10-02T15:58:11.414Z,9.30
2018-10-02T16:00:40.035Z,8.77
2018-10-02T16:03:08.593Z,9.67
2018-10-02T16:05:37.325Z,9.47
2018-10-02T16:08:05.931Z,10.07
2018-10-02T16:10:34.668Z,9.07
2018-10-02T16:13:03.777Z,10.47
2018-10-02T16:15:32.306Z,9.63
2018-10-02T16:18:01.984Z,10.70
2018-10-02T16:20:30.585Z,11.00
2018-10-02T16:22:59.261Z,11.57
2018-10-02T16:25:28.241Z,12.70
2018-10-02T16:27:56.826Z,11.87
2018-10-02T16:30:25.505Z,12.27
2018-10-02T16:32:54.103Z,12.67
2018-10-02T16:35:22.861Z,12.97
2018-10-02T16:37:51.673Z,15.33
2018-10-02T16:40:20.313Z,14.47
2018-10-02T16:42:49.141Z,13.33
2018-10-02T16:45:17.826Z,14.17
2018-10-02T16:47:46.570Z,14.33
2018-10-02T16:50:15.123Z,13.60
2018-10-02T16:52:43.785Z,13.03
2018-10-02T16:55:12.395Z,12.13
2018-10-02T16:57:40.956Z,10.70
2018-10-02T17:00:09.756Z,10.47
2018-10-02T17:02:38.313Z,10.57
2018-10-02T17:05:06.959Z,10.87
2018-10-02T17:07:35.621Z,10.50
2018-10-02T17:10:04.214Z,11.73
2018-10-02T17:12:32.871Z,11.50
2018-10-02T17:15:01.855Z,11.17
2018-10-02T17:17:30.561Z,12.00
2018-10-02T17:19:59.320Z,11.80
2018-10-02T17:22:27.949Z,12.13
2018-10-02T17:24:56.604Z,10.70
2018-10-02T17:27:25.373Z,10.40
2018-10-02T17:29:55.730Z,11.07
2018-10-02T17:32:24.352Z,12.07
2018-10-02T17:34:53.062Z,14.50
2018-10-02T17:37:21.763Z,10.70
2018-10-02T17:39:50.392Z,9.60
2018-10-02T17:42:18.937Z,12.67
2018-10-02T17:44:47.564Z,11.40
2018-10-02T17:47:16.123Z,12.77
2018-10-02T17:49:44.987Z,11.57
2018-10-02T17:52:13.660Z,11.60
2018-10-02T17:54:42.281Z,11.23
2018-10-02T17:57:11.128Z,11.30
2018-10-02T17:59:39.736Z,11.40
2018-10-02T18:02:08.350Z,12.70
2018-10-02T18:04:36.904Z,12.40
2018-10-02T18:07:05.475Z,10.27
2018-10-02T18:09:34.078Z,9.77
2018-10-02T18:12:02.896Z,13.83
2018-10-02T18:14:31.471Z,11.80
2018-10-02T18:17:00.142Z,10.60
2018-10-02T18:19:28.727Z,13.40
2018-10-02T18:21:57.313Z,10.73
2018-10-02T18:24:25.904Z,11.40
2018-10-02T18:26:54.569Z,12.27
2018-10-02T18:29:23.193Z,9.57
2018-10-02T18:31:51.853Z,12.57
2018-10-02T18:34:20.365Z,11.23
2018-10-02T18:36:49.015Z,10.53
2018-10-02T18:39:17.664Z,13.83
2018-10-02T18:41:46.323Z,10.37
2018-10-02T18:44:15.062Z,8.93
2018-10-02T18:46:43.656Z,9.47
2018-10-02T18:49:12.440Z,10.17
2018-10-02T18:51:40.986Z,11.40
2018-10-02T18:54:09.558Z,12.20
2018-10-02T18:56:38.216Z,9.60
2018-10-02T18:59:06.950Z,9.53
2018-10-02T19:01:35.544Z,9.87
2018-10-02T19:04:04.125Z,9.97
2018-10-02T19:06:32.813Z,12.33
2018-10-02T19:09:06.784Z,11.50
2018-10-02T19:11:40.706Z,10.20
2018-10-02T19:14:09.278Z,10.10
2018-10-02T19:16:37.934Z,10.93
2018-10-02T19:19:06.592Z,10.50
2018-10-02T19:21:35.229Z,10.30
2018-10-02T19:24:03.950Z,10.87
2018-10-02T19:26:32.614Z,13.27
2018-10-02T19:29:01.640Z,10.53
2018-10-02T19:31:35.522Z,7.97
2018-10-02T19:34:04.262Z,10.10
2018-10-02T19:36:32.822Z,9.13
2018-10-02T19:39:07.541Z,6.80
2018-10-02T19:41:36.145Z,9.83
2018-10-02T19:44:04.713Z,8.83
2018-10-02T19:46:38.683Z,8.33
2018-10-02T19:49:07.387Z,5.37
2018-10-02T19:51:41.212Z,6.70
2018-10-02T19:54:10.107Z,7.40
2018-10-02T19:56:38.663Z,11.37
2018-10-02T19:59:07.260Z,8.27
2018-10-02T20:01:36.006Z,7.37
2018-10-02T20:04:04.702Z,10.03
2018-10-02T20:06:33.250Z,8.60
2018-10-02T20:09:02.329Z,6.57
2018-10-02T20:11:30.988Z,8.40
2018-10-02T20:13:59.611Z,11.30
2018-10-02T20:16:28.189Z,8.67
2018-10-02T20:18:57.004Z,11.17
2018-10-02T20:21:26.001Z,11.40
2018-10-02T20:23:54.628Z,11.13
2018-10-02T20:26:23.171Z,8.27
2018-10-02T20:28:51.784Z,9.10
2018-10-02T20:31:20.551Z,9.03
2018-10-02T20:33:49.301Z,8.57
2018-10-02T20:36:17.871Z,9.57
2018-10-02T20:38:46.441Z,11.60
2018-10-02T20:41:15.132Z,8.70
2018-10-02T20:43:43.778Z,10.73
2018-10-02T20:46:12.329Z,10.37
2018-10-02T20:48:40.985Z,11.90
2018-10-02T20:51:09.499Z,7.87
2018-10-02T20:53:38.133Z,12.80
2018-10-02T20:56:06.811Z,10.33
2018-10-02T20:58:35.715Z,9.33
2018-10-02T21:01:04.557Z,9.10
2018-10-02T21:03:33.051Z,9.27
2018-10-02T21:06:01.603Z,12.37
2018-10-02T21:08:30.262Z,11.10
2018-10-02T21:10:58.986Z,14.50
2018-10-02T21:13:27.892Z,12.63
2018-10-02T21:15:56.464Z,10.53
2018-10-02T21:18:26.215Z,12.60
2018-10-02T21:20:55.093Z,9.30
2018-10-02T21:23:24.283Z,12.93
2018-10-02T21:25:52.871Z,14.40
2018-10-02T21:28:21.469Z,11.07
2018-10-02T21:30:50.053Z,10.43
2018-10-02T21:33:18.812Z,12.13
2018-10-02T21:35:47.562Z,9.37
2018-10-02T21:38:16.195Z,10.80
2018-10-02T21:40:44.897Z,10.37
2018-10-02T21:43:13.658Z,8.90
2018-10-02T21:45:42.276Z,9.87
2018-10-02T21:48:10.810Z,9.60
2018-10-02T21:50:39.903Z,11.27
2018-10-02T21:53:08.522Z,10.27
2018-10-02T21:55:37.169Z,11.47
2018-10-02T21:58:05.964Z,12.07
2018-10-02T22:00:35.035Z,13.23
2018-10-02T22:03:04.048Z,12.93
2018-10-02T22:05:32.583Z,11.37
2018-10-02T22:08:02.240Z,14.43
2018-10-02T22:10:30.929Z,14.93
2018-10-02T22:12:59.606Z,12.20
2018-10-02T22:15:28.643Z,11.07
2018-10-02T22:17:57.243Z,10.73
2018-10-02T22:20:25.993Z,10.93
2018-10-02T22:22:54.552Z,13.47
2018-10-02T22:25:23.160Z,10.53
2018-10-02T22:27:51.743Z,12.00
2018-10-02T22:30:20.307Z,11.27
2018-10-02T22:32:48.856Z,13.80
2018-10-02T22:35:17.467Z,10.07
2018-10-02T22:37:46.130Z,11.50
2018-10-02T22:40:14.868Z,14.63
2018-10-02T22:42:43.488Z,15.97
2018-10-02T22:45:12.141Z,12.10
2018-10-02T22:47:40.691Z,17.23
2018-10-02T22:50:09.393Z,13.33
2018-10-02T22:52:37.974Z,13.57
2018-10-02T22:55:06.605Z,10.00
2018-10-02T22:57:35.212Z,11.57
2018-10-02T23:00:03.905Z,11.33
2018-10-02T23:02:32.603Z,11.83
2018-10-02T23:05:01.475Z,18.30
2018-10-02T23:07:30.323Z,14.23
2018-10-02T23:09:58.995Z,13.20
2018-10-02T23:12:27.570Z,14.13
2018-10-02T23:14:56.318Z,11.70
2018-10-02T23:17:24.957Z,11.70
2018-10-02T23:19:53.649Z,13.93
2018-10-02T23:22:22.326Z,11.73
2018-10-02T23:24:50.958Z,15.87
2018-10-02T23:27:19.640Z,11.33
2018-10-02T23:29:48.290Z,15.50
2018-10-02T23:32:17.090Z,15.67
2018-10-02T23:34:45.876Z,16.43
2018-10-02T23:37:14.646Z,13.73
2018-10-02T23:39:43.318Z,11.20
2018-10-02T23:42:12.053Z,15.83
2018-10-02T23:44:40.572Z,13.20
2018-10-02T23:47:09.277Z,12.47
2018-10-02T23:49:37.915Z,10.60
2018-10-02T23:52:06.533Z,14.23
2018-10-02T23:54:35.132Z,14.20
2018-10-02T23:57:03.893Z,16.87
2018-10-02T23:59:32.533Z,12.50
